sensor_id;sensor_type;location;lat;lon;timestamp;pressure;altitude;pressure_sealevel;temperature;humidity
51313;BME280;37397;53.226;10.400;2023-12-20T00:01:02;100562.38;;;8.82;78.93
51313;BME280;37397;53.226;10.400;2023-12-20T00:03:28;100574.56;;;8.83;79.04
51313;BME280;37397;53.226;10.400;2023-12-20T00:06:07;100564.94;;;8.80;78.92
51313;BME280;37397;53.226;10.400;2023-12-20T00:08:34;100576.63;;;8.82;79.04
51313;BME280;37397;53.226;10.400;2023-12-20T00:11:00;100574.88;;;8.75;79.01
51313;BME280;37397;53.226;10.400;2023-12-20T00:13:27;100578.06;;;8.78;78.95
51313;BME280;37397;53.226;10.400;2023-12-20T00:15:53;100563.66;;;8.72;78.88
51313;BME280;37397;53.226;10.400;2023-12-20T00:18:20;100580.91;;;8.78;79.01
51313;BME280;37397;53.226;10.400;2023-12-20T00:20:46;100562.88;;;8.71;78.90
51313;BME280;37397;53.226;10.400;2023-12-20T00:23:12;100576.94;;;8.75;78.99
51313;BME280;37397;53.226;10.400;2023-12-20T00:25:39;100576.47;;;8.76;79.11
51313;BME280;37397;53.226;10.400;2023-12-20T00:28:06;100573.31;;;8.74;78.88
51313;BME280;37397;53.226;10.400;2023-12-20T00:30:33;100573.47;;;8.71;78.88
51313;BME280;37397;53.226;10.400;2023-12-20T00:32:59;100574.28;;;8.71;78.94
51313;BME280;37397;53.226;10.400;2023-12-20T00:35:26;100578.38;;;8.70;78.87
51313;BME280;37397;53.226;10.400;2023-12-20T00:37:53;100566.69;;;8.68;78.95
51313;BME280;37397;53.226;10.400;2023-12-20T00:40:19;100564.63;;;8.69;78.87
51313;BME280;37397;53.226;10.400;2023-12-20T00:42:47;100576.00;;;8.69;78.95
51313;BME280;37397;53.226;10.400;2023-12-20T00:45:14;100560.69;;;8.66;79.03
51313;BME280;37397;53.226;10.400;2023-12-20T00:47:40;100549.91;;;8.61;78.85
51313;BME280;37397;53.226;10.400;2023-12-20T00:50:08;100570.47;;;8.65;78.88
51313;BME280;37397;53.226;10.400;2023-12-20T00:52:35;100561.16;;;8.65;78.75
51313;BME280;37397;53.226;10.400;2023-12-20T00:55:02;100561.28;;;8.61;78.59
51313;BME280;37397;53.226;10.400;2023-12-20T00:57:30;100554.03;;;8.60;78.95
51313;BME280;37397;53.226;10.400;2023-12-20T00:59:57;100553.56;;;8.62;78.81
51313;BME280;37397;53.226;10.400;2023-12-20T01:02:24;100562.56;;;8.60;78.82
51313;BME280;37397;53.226;10.400;2023-12-20T01:04:51;100558.16;;;8.59;78.76
51313;BME280;37397;53.226;10.400;2023-12-20T01:07:17;100557.84;;;8.57;78.63
51313;BME280;37397;53.226;10.400;2023-12-20T01:09:44;100560.69;;;8.57;78.80
51313;BME280;37397;53.226;10.400;2023-12-20T01:12:10;100553.09;;;8.54;78.72
51313;BME280;37397;53.226;10.400;2023-12-20T01:14:37;100553.88;;;8.54;78.73
51313;BME280;37397;53.226;10.400;2023-12-20T01:17:05;100548.34;;;8.51;78.62
51313;BME280;37397;53.226;10.400;2023-12-20T01:19:32;100557.19;;;8.53;78.55
51313;BME280;37397;53.226;10.400;2023-12-20T01:21:59;100550.88;;;8.49;78.64
51313;BME280;37397;53.226;10.400;2023-12-20T01:24:25;100552.13;;;8.48;78.52
51313;BME280;37397;53.226;10.400;2023-12-20T01:26:52;100538.88;;;8.45;78.57
51313;BME280;37397;53.226;10.400;2023-12-20T01:29:18;100541.22;;;8.46;78.95
51313;BME280;37397;53.226;10.400;2023-12-20T01:31:45;100527.44;;;8.35;78.61
51313;BME280;37397;53.226;10.400;2023-12-20T01:34:12;100542.50;;;8.45;78.94
51313;BME280;37397;53.226;10.400;2023-12-20T01:36:39;100536.94;;;8.42;78.72
51313;BME280;37397;53.226;10.400;2023-12-20T01:39:05;100539.34;;;8.43;78.77
51313;BME280;37397;53.226;10.400;2023-12-20T01:41:50;100536.94;;;8.42;78.70
51313;BME280;37397;53.226;10.400;2023-12-20T01:44:17;100526.84;;;8.40;78.68
51313;BME280;37397;53.226;10.400;2023-12-20T01:46:43;100525.59;;;8.32;78.88
51313;BME280;37397;53.226;10.400;2023-12-20T01:49:10;100529.34;;;8.38;78.76
51313;BME280;37397;53.226;10.400;2023-12-20T01:51:37;100537.88;;;8.38;78.83
51313;BME280;37397;53.226;10.400;2023-12-20T01:54:04;100534.72;;;8.36;78.81
51313;BME280;37397;53.226;10.400;2023-12-20T01:56:31;100533.47;;;8.37;79.01
51313;BME280;37397;53.226;10.400;2023-12-20T01:58:58;100525.41;;;8.36;78.95
51313;BME280;37397;53.226;10.400;2023-12-20T02:01:26;100514.22;;;8.32;78.95
51313;BME280;37397;53.226;10.400;2023-12-20T02:03:55;100514.53;;;8.34;78.84
51313;BME280;37397;53.226;10.400;2023-12-20T02:06:23;100513.41;;;8.32;78.75
51313;BME280;37397;53.226;10.400;2023-12-20T02:08:51;100511.03;;;8.30;78.70
51313;BME280;37397;53.226;10.400;2023-12-20T02:11:17;100505.69;;;8.32;78.64
51313;BME280;37397;53.226;10.400;2023-12-20T02:13:44;100501.25;;;8.31;78.75
51313;BME280;37397;53.226;10.400;2023-12-20T02:16:10;100498.09;;;8.29;78.42
51313;BME280;37397;53.226;10.400;2023-12-20T02:18:39;100492.41;;;8.29;78.57
51313;BME280;37397;53.226;10.400;2023-12-20T02:21:05;100486.88;;;8.26;78.91
51313;BME280;37397;53.226;10.400;2023-12-20T02:23:32;100490.81;;;8.28;78.62
51313;BME280;37397;53.226;10.400;2023-12-20T02:25:58;100482.13;;;8.22;78.68
51313;BME280;37397;53.226;10.400;2023-12-20T02:28:25;100484.50;;;8.24;78.62
51313;BME280;37397;53.226;10.400;2023-12-20T02:30:53;100485.44;;;8.21;78.73
51313;BME280;37397;53.226;10.400;2023-12-20T02:33:19;100490.81;;;8.19;78.55
51313;BME280;37397;53.226;10.400;2023-12-20T02:35:46;100487.97;;;8.19;78.68
51313;BME280;37397;53.226;10.400;2023-12-20T02:38:13;100487.97;;;8.19;78.56
51313;BME280;37397;53.226;10.400;2023-12-20T02:40:40;100481.66;;;8.15;78.59
51313;BME280;37397;53.226;10.400;2023-12-20T02:43:14;100478.81;;;8.15;78.62
51313;BME280;37397;53.226;10.400;2023-12-20T02:45:41;100490.50;;;8.17;78.73
51313;BME280;37397;53.226;10.400;2023-12-20T02:48:07;100483.88;;;8.11;78.64
51313;BME280;37397;53.226;10.400;2023-12-20T02:50:34;100482.91;;;8.14;78.60
51313;BME280;37397;53.226;10.400;2023-12-20T02:53:00;100470.59;;;8.08;78.60
51313;BME280;37397;53.226;10.400;2023-12-20T02:55:27;100466.50;;;8.09;78.74
51313;BME280;37397;53.226;10.400;2023-12-20T02:57:54;100467.75;;;8.08;78.71
51313;BME280;37397;53.226;10.400;2023-12-20T03:00:21;100474.88;;;8.12;78.70
51313;BME280;37397;53.226;10.400;2023-12-20T03:02:47;100470.28;;;8.06;78.74
51313;BME280;37397;53.226;10.400;2023-12-20T03:05:14;100472.97;;;8.09;78.67
51313;BME280;37397;53.226;10.400;2023-12-20T03:07:40;100480.72;;;8.09;78.63
51313;BME280;37397;53.226;10.400;2023-12-20T03:10:08;100465.38;;;8.06;78.50
51313;BME280;37397;53.226;10.400;2023-12-20T03:12:45;100468.22;;;8.06;78.47
51313;BME280;37397;53.226;10.400;2023-12-20T03:15:12;100461.47;;;8.03;78.64
51313;BME280;37397;53.226;10.400;2023-12-20T03:17:38;100461.13;;;8.01;78.82
51313;BME280;37397;53.226;10.400;2023-12-20T03:20:06;100450.22;;;8.00;78.79
51313;BME280;37397;53.226;10.400;2023-12-20T03:22:33;100445.81;;;7.99;78.50
51313;BME280;37397;53.226;10.400;2023-12-20T03:24:59;100444.06;;;8.01;78.57
51313;BME280;37397;53.226;10.400;2023-12-20T03:27:26;100433.97;;;8.00;78.62
51313;BME280;37397;53.226;10.400;2023-12-20T03:29:53;100438.06;;;7.99;78.45
51313;BME280;37397;53.226;10.400;2023-12-20T03:32:19;100432.88;;;7.98;78.38
51313;BME280;37397;53.226;10.400;2023-12-20T03:34:46;100421.19;;;7.96;78.57
51313;BME280;37397;53.226;10.400;2023-12-20T03:37:13;100409.53;;;7.94;78.55
51313;BME280;37397;53.226;10.400;2023-12-20T03:39:40;100424.81;;;7.96;78.57
51313;BME280;37397;53.226;10.400;2023-12-20T03:42:06;100418.81;;;7.94;78.42
51313;BME280;37397;53.226;10.400;2023-12-20T03:44:33;100408.41;;;7.91;78.41
51313;BME280;37397;53.226;10.400;2023-12-20T03:46:59;100406.34;;;7.92;78.62
51313;BME280;37397;53.226;10.400;2023-12-20T03:49:26;100408.09;;;7.89;78.36
51313;BME280;37397;53.226;10.400;2023-12-20T03:51:52;100414.09;;;7.91;78.59
51313;BME280;37397;53.226;10.400;2023-12-20T03:54:19;100422.31;;;7.89;78.58
51313;BME280;37397;53.226;10.400;2023-12-20T03:56:46;100410.13;;;7.89;78.59
51313;BME280;37397;53.226;10.400;2023-12-20T03:59:12;100410.59;;;7.87;78.64
51313;BME280;37397;53.226;10.400;2023-12-20T04:01:43;100406.50;;;7.88;78.36
51313;BME280;37397;53.226;10.400;2023-12-20T04:04:11;100406.38;;;7.82;78.40
51313;BME280;37397;53.226;10.400;2023-12-20T04:06:38;100397.03;;;7.82;78.55
51313;BME280;37397;53.226;10.400;2023-12-20T04:09:04;100389.78;;;7.81;78.59
51313;BME280;37397;53.226;10.400;2023-12-20T04:11:31;100395.00;;;7.82;78.44
51313;BME280;37397;53.226;10.400;2023-12-20T04:13:57;100392.16;;;7.82;78.57
51313;BME280;37397;53.226;10.400;2023-12-20T04:16:24;100388.19;;;7.80;78.56
51313;BME280;37397;53.226;10.400;2023-12-20T04:18:51;100390.56;;;7.81;78.60
51313;BME280;37397;53.226;10.400;2023-12-20T04:21:18;100389.44;;;7.79;78.57
51313;BME280;37397;53.226;10.400;2023-12-20T04:23:44;100366.41;;;7.77;78.45
51313;BME280;37397;53.226;10.400;2023-12-20T04:26:11;100363.09;;;7.78;78.71
51313;BME280;37397;53.226;10.400;2023-12-20T04:28:37;100365.63;;;7.76;78.66
51313;BME280;37397;53.226;10.400;2023-12-20T04:31:04;100363.59;;;7.77;78.49
51313;BME280;37397;53.226;10.400;2023-12-20T04:33:31;100366.72;;;7.79;78.76
51313;BME280;37397;53.226;10.400;2023-12-20T04:35:57;100364.34;;;7.77;78.41
51313;BME280;37397;53.226;10.400;2023-12-20T04:38:24;100370.69;;;7.72;78.63
51313;BME280;37397;53.226;10.400;2023-12-20T04:40:50;100366.59;;;7.73;78.61
51313;BME280;37397;53.226;10.400;2023-12-20T04:43:17;100366.41;;;7.77;78.57
51313;BME280;37397;53.226;10.400;2023-12-20T04:45:43;100358.38;;;7.75;78.69
51313;BME280;37397;53.226;10.400;2023-12-20T04:48:10;100364.84;;;7.76;78.63
51313;BME280;37397;53.226;10.400;2023-12-20T04:50:37;100354.28;;;7.76;78.57
51313;BME280;37397;53.226;10.400;2023-12-20T04:53:03;100345.59;;;7.71;78.69
51313;BME280;37397;53.226;10.400;2023-12-20T04:55:30;100348.72;;;7.73;78.80
51313;BME280;37397;53.226;10.400;2023-12-20T04:57:57;100351.91;;;7.75;78.78
51313;BME280;37397;53.226;10.400;2023-12-20T05:00:23;100344.81;;;7.70;78.78
51313;BME280;37397;53.226;10.400;2023-12-20T05:02:50;100344.63;;;7.74;78.61
51313;BME280;37397;53.226;10.400;2023-12-20T05:05:17;100349.53;;;7.73;78.68
51313;BME280;37397;53.226;10.400;2023-12-20T05:07:44;100329.50;;;7.67;78.45
51313;BME280;37397;53.226;10.400;2023-12-20T05:10:11;100350.31;;;7.74;78.73
51313;BME280;37397;53.226;10.400;2023-12-20T05:12:38;100343.06;;;7.73;78.69
51313;BME280;37397;53.226;10.400;2023-12-20T05:15:07;100330.59;;;7.70;78.79
51313;BME280;37397;53.226;10.400;2023-12-20T05:17:34;100344.34;;;7.72;78.69
51313;BME280;37397;53.226;10.400;2023-12-20T05:20:01;100336.59;;;7.72;78.51
51313;BME280;37397;53.226;10.400;2023-12-20T05:22:28;100341.97;;;7.70;78.60
51313;BME280;37397;53.226;10.400;2023-12-20T05:24:54;100349.72;;;7.70;78.64
51313;BME280;37397;53.226;10.400;2023-12-20T05:27:21;100344.81;;;7.70;78.70
51313;BME280;37397;53.226;10.400;2023-12-20T05:29:48;100345.28;;;7.69;78.53
51313;BME280;37397;53.226;10.400;2023-12-20T05:32:15;100341.50;;;7.72;78.67
51313;BME280;37397;53.226;10.400;2023-12-20T05:34:41;100330.31;;;7.68;78.76
51313;BME280;37397;53.226;10.400;2023-12-20T05:37:08;100334.22;;;7.71;78.84
51313;BME280;37397;53.226;10.400;2023-12-20T05:39:35;100345.59;;;7.71;78.59
51313;BME280;37397;53.226;10.400;2023-12-20T05:42:01;100342.28;;;7.72;78.83
51313;BME280;37397;53.226;10.400;2023-12-20T05:44:28;100338.34;;;7.70;78.55
51313;BME280;37397;53.226;10.400;2023-12-20T05:46:54;100337.69;;;7.65;78.75
51313;BME280;37397;53.226;10.400;2023-12-20T05:49:21;100342.91;;;7.67;78.53
51313;BME280;37397;53.226;10.400;2023-12-20T05:51:48;100334.22;;;7.71;79.03
51313;BME280;37397;53.226;10.400;2023-12-20T05:54:15;100337.53;;;7.69;78.69
51313;BME280;37397;53.226;10.400;2023-12-20T05:56:41;100330.78;;;7.66;78.54
51313;BME280;37397;53.226;10.400;2023-12-20T05:59:08;100338.34;;;7.70;78.69
51313;BME280;37397;53.226;10.400;2023-12-20T06:01:35;100340.38;;;7.69;78.84
51313;BME280;37397;53.226;10.400;2023-12-20T06:04:02;100331.84;;;7.69;78.61
51313;BME280;37397;53.226;10.400;2023-12-20T06:06:29;100327.78;;;7.70;78.79
51313;BME280;37397;53.226;10.400;2023-12-20T06:08:57;100333.44;;;7.70;78.81
51313;BME280;37397;53.226;10.400;2023-12-20T06:11:23;100327.00;;;7.70;78.57
51313;BME280;37397;53.226;10.400;2023-12-20T06:13:50;100327.00;;;7.70;78.88
51313;BME280;37397;53.226;10.400;2023-12-20T06:16:18;100320.50;;;7.69;78.69
51313;BME280;37397;53.226;10.400;2023-12-20T06:18:45;100310.56;;;7.64;78.81
51313;BME280;37397;53.226;10.400;2023-12-20T06:21:12;100315.63;;;7.70;78.76
51313;BME280;37397;53.226;10.400;2023-12-20T06:23:39;100310.91;;;7.66;78.72
51313;BME280;37397;53.226;10.400;2023-12-20T06:26:06;100303.16;;;7.67;78.55
51313;BME280;37397;53.226;10.400;2023-12-20T06:28:32;100294.63;;;7.67;78.63
51313;BME280;37397;53.226;10.400;2023-12-20T06:30:59;100299.38;;;7.70;78.73
51313;BME280;37397;53.226;10.400;2023-12-20T06:33:27;100300.16;;;7.71;78.62
51313;BME280;37397;53.226;10.400;2023-12-20T06:35:53;100305.81;;;7.71;78.57
51313;BME280;37397;53.226;10.400;2023-12-20T06:38:20;100302.50;;;7.72;78.63
51313;BME280;37397;53.226;10.400;2023-12-20T06:40:46;100303.28;;;7.73;78.60
51313;BME280;37397;53.226;10.400;2023-12-20T06:43:13;100297.00;;;7.69;78.64
51313;BME280;37397;53.226;10.400;2023-12-20T06:45:58;100299.69;;;7.72;78.88
51313;BME280;37397;53.226;10.400;2023-12-20T06:48:24;100299.38;;;7.70;78.82
51313;BME280;37397;53.226;10.400;2023-12-20T06:50:51;100289.59;;;7.71;78.70
51313;BME280;37397;53.226;10.400;2023-12-20T06:53:17;100294.78;;;7.73;78.69
51313;BME280;37397;53.226;10.400;2023-12-20T06:55:44;100291.16;;;7.72;78.63
51313;BME280;37397;53.226;10.400;2023-12-20T06:58:10;100283.09;;;7.71;78.54
51313;BME280;37397;53.226;10.400;2023-12-20T07:00:37;100281.84;;;7.72;78.49
51313;BME280;37397;53.226;10.400;2023-12-20T07:03:04;100284.69;;;7.72;78.66
51313;BME280;37397;53.226;10.400;2023-12-20T07:05:31;100267.66;;;7.72;78.79
51313;BME280;37397;53.226;10.400;2023-12-20T07:07:58;100278.22;;;7.71;78.62
51313;BME280;37397;53.226;10.400;2023-12-20T07:10:25;100274.28;;;7.69;78.63
51313;BME280;37397;53.226;10.400;2023-12-20T07:12:51;100276.47;;;7.74;78.65
51313;BME280;37397;53.226;10.400;2023-12-20T07:15:18;100268.59;;;7.69;78.60
51313;BME280;37397;53.226;10.400;2023-12-20T07:17:45;100259.59;;;7.70;78.42
51313;BME280;37397;53.226;10.400;2023-12-20T07:20:12;100261.03;;;7.75;78.62
51313;BME280;37397;53.226;10.400;2023-12-20T07:22:39;100243.81;;;7.69;78.50
51313;BME280;37397;53.226;10.400;2023-12-20T07:25:06;100254.09;;;7.66;78.63
51313;BME280;37397;53.226;10.400;2023-12-20T07:27:33;100263.69;;;7.69;78.58
51313;BME280;37397;53.226;10.400;2023-12-20T07:30:00;100265.13;;;7.74;78.75
51313;BME280;37397;53.226;10.400;2023-12-20T07:32:26;100259.31;;;7.68;78.64
51313;BME280;37397;53.226;10.400;2023-12-20T07:34:53;100272.06;;;7.73;78.69
51313;BME280;37397;53.226;10.400;2023-12-20T07:37:21;100259.44;;;7.64;78.58
51313;BME280;37397;53.226;10.400;2023-12-20T07:39:48;100267.97;;;7.74;78.56
51313;BME280;37397;53.226;10.400;2023-12-20T07:42:14;100265.13;;;7.74;78.63
51313;BME280;37397;53.226;10.400;2023-12-20T07:44:41;100271.59;;;7.74;78.65
51313;BME280;37397;53.226;10.400;2023-12-20T07:47:08;100263.53;;;7.73;78.38
51313;BME280;37397;53.226;10.400;2023-12-20T07:49:34;100256.00;;;7.70;78.54
51313;BME280;37397;53.226;10.400;2023-12-20T07:52:01;100266.72;;;7.75;78.61
51313;BME280;37397;53.226;10.400;2023-12-20T07:54:28;100263.53;;;7.73;78.60
51313;BME280;37397;53.226;10.400;2023-12-20T07:56:56;100256.13;;;7.75;78.74
51313;BME280;37397;53.226;10.400;2023-12-20T07:59:23;100246.50;;;7.73;78.58
51313;BME280;37397;53.226;10.400;2023-12-20T08:01:58;100248.09;;;7.74;78.56
51313;BME280;37397;53.226;10.400;2023-12-20T08:04:25;100256.91;;;7.76;78.54
51313;BME280;37397;53.226;10.400;2023-12-20T08:06:52;100235.13;;;7.73;78.66
51313;BME280;37397;53.226;10.400;2023-12-20T08:09:19;100250.44;;;7.75;78.48
51313;BME280;37397;53.226;10.400;2023-12-20T08:11:49;100248.84;;;7.74;78.50
51313;BME280;37397;53.226;10.400;2023-12-20T08:14:16;100229.78;;;7.75;78.64
51313;BME280;37397;53.226;10.400;2023-12-20T08:16:42;100235.94;;;7.73;78.55
51313;BME280;37397;53.226;10.400;2023-12-20T08:19:09;100229.78;;;7.75;78.76
51313;BME280;37397;53.226;10.400;2023-12-20T08:21:36;100244.28;;;7.77;78.58
51313;BME280;37397;53.226;10.400;2023-12-20T08:24:04;100232.94;;;7.77;78.63
51313;BME280;37397;53.226;10.400;2023-12-20T08:26:32;100232.63;;;7.75;78.72
51313;BME280;37397;53.226;10.400;2023-12-20T08:28:59;100218.72;;;7.77;78.68
51313;BME280;37397;53.226;10.400;2023-12-20T08:31:28;100231.34;;;7.76;78.62
51313;BME280;37397;53.226;10.400;2023-12-20T08:33:55;100220.63;;;7.71;78.66
51313;BME280;37397;53.226;10.400;2023-12-20T08:36:22;100209.63;;;7.63;78.72
51313;BME280;37397;53.226;10.400;2023-12-20T08:38:50;100226.00;;;7.78;78.63
51313;BME280;37397;53.226;10.400;2023-12-20T08:41:17;100224.41;;;7.77;78.65
51313;BME280;37397;53.226;10.400;2023-12-20T08:43:44;100196.78;;;7.77;78.64
51313;BME280;37397;53.226;10.400;2023-12-20T08:46:10;100213.34;;;7.79;78.76
51313;BME280;37397;53.226;10.400;2023-12-20T08:48:38;100175.81;;;7.75;78.95
51313;BME280;37397;53.226;10.400;2023-12-20T08:51:05;100191.91;;;7.78;78.86
51313;BME280;37397;53.226;10.400;2023-12-20T08:53:35;100156.91;;;7.62;78.74
51313;BME280;37397;53.226;10.400;2023-12-20T08:56:01;100180.84;;;7.80;78.77
51313;BME280;37397;53.226;10.400;2023-12-20T08:58:28;100178.00;;;7.80;78.78
51313;BME280;37397;53.226;10.400;2023-12-20T09:00:55;100155.00;;;7.69;78.82
51313;BME280;37397;53.226;10.400;2023-12-20T09:03:24;100160.66;;;7.78;78.77
51313;BME280;37397;53.226;10.400;2023-12-20T09:05:50;100183.69;;;7.80;78.73
51313;BME280;37397;53.226;10.400;2023-12-20T09:08:17;100166.66;;;7.80;78.64
51313;BME280;37397;53.226;10.400;2023-12-20T09:10:43;100159.38;;;7.79;78.86
51313;BME280;37397;53.226;10.400;2023-12-20T09:13:11;100176.75;;;7.81;78.72
51313;BME280;37397;53.226;10.400;2023-12-20T09:15:38;100148.22;;;7.66;78.70
51313;BME280;37397;53.226;10.400;2023-12-20T09:18:05;100168.38;;;7.77;78.81
51313;BME280;37397;53.226;10.400;2023-12-20T09:20:32;100156.25;;;7.77;78.73
51313;BME280;37397;53.226;10.400;2023-12-20T09:22:59;100159.38;;;7.79;78.76
51313;BME280;37397;53.226;10.400;2023-12-20T09:25:26;100156.06;;;7.80;78.73
51313;BME280;37397;53.226;10.400;2023-12-20T09:27:53;100154.34;;;7.83;78.76
51313;BME280;37397;53.226;10.400;2023-12-20T09:30:20;100146.47;;;7.78;78.73
51313;BME280;37397;53.226;10.400;2023-12-20T09:32:54;100148.34;;;7.81;78.76
51313;BME280;37397;53.226;10.400;2023-12-20T09:35:21;100146.28;;;7.81;78.87
51313;BME280;37397;53.226;10.400;2023-12-20T09:37:48;100147.38;;;7.84;78.89
51313;BME280;37397;53.226;10.400;2023-12-20T09:40:17;100120.91;;;7.78;78.77
51313;BME280;37397;53.226;10.400;2023-12-20T09:42:48;100130.66;;;7.86;78.94
51313;BME280;37397;53.226;10.400;2023-12-20T09:45:20;100118.47;;;7.85;79.04
51313;BME280;37397;53.226;10.400;2023-12-20T09:47:52;100115.16;;;7.87;79.02
51313;BME280;37397;53.226;10.400;2023-12-20T09:50:20;100112.22;;;7.81;78.95
51313;BME280;37397;53.226;10.400;2023-12-20T09:52:52;100106.34;;;7.85;78.97
51313;BME280;37397;53.226;10.400;2023-12-20T09:55:19;100119.28;;;7.86;79.04
51313;BME280;37397;53.226;10.400;2023-12-20T09:57:47;100120.84;;;7.87;78.82
51313;BME280;37397;53.226;10.400;2023-12-20T10:00:15;100127.50;;;7.84;79.09
51313;BME280;37397;53.226;10.400;2023-12-20T10:02:56;100135.06;;;7.87;79.06
51313;BME280;37397;53.226;10.400;2023-12-20T10:05:30;100160.63;;;7.87;79.08
51313;BME280;37397;53.226;10.400;2023-12-20T10:07:58;100177.06;;;7.83;78.94
51313;BME280;37397;53.226;10.400;2023-12-20T10:10:26;100179.59;;;7.81;79.17
51313;BME280;37397;53.226;10.400;2023-12-20T10:13:09;100158.72;;;7.84;78.99
51313;BME280;37397;53.226;10.400;2023-12-20T10:15:39;100154.34;;;7.83;78.98
51313;BME280;37397;53.226;10.400;2023-12-20T10:18:07;100146.13;;;7.85;78.76
51313;BME280;37397;53.226;10.400;2023-12-20T10:20:34;100143.44;;;7.81;78.74
51313;BME280;37397;53.226;10.400;2023-12-20T10:23:01;100172.94;;;7.84;78.82
51313;BME280;37397;53.226;10.400;2023-12-20T10:25:28;100151.97;;;7.81;78.87
51313;BME280;37397;53.226;10.400;2023-12-20T10:28:13;100151.50;;;7.83;78.57
51313;BME280;37397;53.226;10.400;2023-12-20T10:30:40;100155.00;;;7.78;78.83
51313;BME280;37397;53.226;10.400;2023-12-20T10:33:08;100152.16;;;7.78;78.90
51313;BME280;37397;53.226;10.400;2023-12-20T10:35:40;100143.31;;;7.76;78.87
51313;BME280;37397;53.226;10.400;2023-12-20T10:38:12;100152.44;;;7.80;78.85
51313;BME280;37397;53.226;10.400;2023-12-20T10:40:40;100158.59;;;7.78;78.91
51313;BME280;37397;53.226;10.400;2023-12-20T10:43:08;100140.78;;;7.78;78.92
51313;BME280;37397;53.226;10.400;2023-12-20T10:45:35;100160.97;;;7.80;78.92
51313;BME280;37397;53.226;10.400;2023-12-20T10:48:02;100141.28;;;7.76;78.75
51313;BME280;37397;53.226;10.400;2023-12-20T10:50:31;100160.50;;;7.81;78.81
51313;BME280;37397;53.226;10.400;2023-12-20T10:52:58;100161.28;;;7.82;78.90
51313;BME280;37397;53.226;10.400;2023-12-20T10:55:25;100158.44;;;7.82;78.76
51313;BME280;37397;53.226;10.400;2023-12-20T10:58:00;100152.44;;;7.80;78.76
51313;BME280;37397;53.226;10.400;2023-12-20T11:00:29;100134.94;;;7.81;78.57
51313;BME280;37397;53.226;10.400;2023-12-20T11:03:00;100139.84;;;7.81;78.83
51313;BME280;37397;53.226;10.400;2023-12-20T11:05:58;100134.31;;;7.77;78.56
51313;BME280;37397;53.226;10.400;2023-12-20T11:11:59;100146.47;;;7.78;78.77
51313;BME280;37397;53.226;10.400;2023-12-20T11:14:40;100131.63;;;7.74;78.92
51313;BME280;37397;53.226;10.400;2023-12-20T11:17:10;100129.75;;;7.71;78.96
51313;BME280;37397;53.226;10.400;2023-12-20T11:22:25;100127.38;;;7.78;78.77
51313;BME280;37397;53.226;10.400;2023-12-20T11:24:53;100132.56;;;7.80;78.98
51313;BME280;37397;53.226;10.400;2023-12-20T11:27:20;100111.16;;;7.70;78.95
51313;BME280;37397;53.226;10.400;2023-12-20T11:29:54;100125.19;;;7.73;78.59
51313;BME280;37397;53.226;10.400;2023-12-20T11:34:59;100121.22;;;7.80;78.52
51313;BME280;37397;53.226;10.400;2023-12-20T11:37:31;100124.06;;;7.80;78.80
51313;BME280;37397;53.226;10.400;2023-12-20T11:40:06;100119.81;;;7.75;78.44
51313;BME280;37397;53.226;10.400;2023-12-20T11:42:44;100133.53;;;7.77;78.53
51313;BME280;37397;53.226;10.400;2023-12-20T11:45:14;100139.19;;;7.77;78.30
51313;BME280;37397;53.226;10.400;2023-12-20T11:47:47;100130.69;;;7.77;78.38
51313;BME280;37397;53.226;10.400;2023-12-20T11:50:14;100133.88;;;7.70;78.46
51313;BME280;37397;53.226;10.400;2023-12-20T11:52:41;100122.34;;;7.73;78.37
51313;BME280;37397;53.226;10.400;2023-12-20T11:55:07;100114.59;;;7.74;78.43
51313;BME280;37397;53.226;10.400;2023-12-20T11:57:35;100119.31;;;7.77;78.45
51313;BME280;37397;53.226;10.400;2023-12-20T12:00:03;100121.69;;;7.78;78.52
51313;BME280;37397;53.226;10.400;2023-12-20T12:02:37;100116.47;;;7.77;78.51
51313;BME280;37397;53.226;10.400;2023-12-20T12:05:04;100120.56;;;7.76;78.33
51313;BME280;37397;53.226;10.400;2023-12-20T12:07:34;100113.34;;;7.75;78.43
51313;BME280;37397;53.226;10.400;2023-12-20T12:10:02;100114.41;;;7.77;78.38
51313;BME280;37397;53.226;10.400;2023-12-20T12:12:30;100125.00;;;7.77;78.35
51313;BME280;37397;53.226;10.400;2023-12-20T12:14:57;100119.81;;;7.75;78.30
51313;BME280;37397;53.226;10.400;2023-12-20T12:17:24;100115.38;;;7.74;78.38
51313;BME280;37397;53.226;10.400;2023-12-20T12:20:02;100127.84;;;7.77;78.24
51313;BME280;37397;53.226;10.400;2023-12-20T12:22:30;100122.16;;;7.77;78.34
51313;BME280;37397;53.226;10.400;2023-12-20T12:24:59;100109.22;;;7.76;78.37
51313;BME280;37397;53.226;10.400;2023-12-20T12:27:27;100109.53;;;7.78;78.23
51313;BME280;37397;53.226;10.400;2023-12-20T12:30:04;100097.84;;;7.76;78.29
51313;BME280;37397;53.226;10.400;2023-12-20T12:32:33;100096.91;;;7.79;78.37
51313;BME280;37397;53.226;10.400;2023-12-20T12:35:03;100103.38;;;7.79;78.34
51313;BME280;37397;53.226;10.400;2023-12-20T12:37:30;100107.00;;;7.80;78.30
51313;BME280;37397;53.226;10.400;2023-12-20T12:39:56;100092.19;;;7.76;78.23
51313;BME280;37397;53.226;10.400;2023-12-20T12:42:23;100097.72;;;7.79;78.32
51313;BME280;37397;53.226;10.400;2023-12-20T12:44:54;100106.22;;;7.79;78.12
51313;BME280;37397;53.226;10.400;2023-12-20T12:47:22;100072.38;;;7.66;78.27
51313;BME280;37397;53.226;10.400;2023-12-20T12:49:51;100099.44;;;7.77;78.10
51313;BME280;37397;53.226;10.400;2023-12-20T12:52:19;100100.06;;;7.81;78.08
51313;BME280;37397;53.226;10.400;2023-12-20T12:54:46;100098.78;;;7.82;78.00
51313;BME280;37397;53.226;10.400;2023-12-20T12:57:14;100096.91;;;7.79;78.03
51313;BME280;37397;53.226;10.400;2023-12-20T12:59:42;100107.00;;;7.80;77.91
51313;BME280;37397;53.226;10.400;2023-12-20T13:02:10;100102.59;;;7.79;77.86